Gran Canaria > ESTACION METEOROLÓGICA El Risco - Agaete

DATOS ACTUALES Online

Ultima actulizacion 52 minutos

23.2 ºC

Temperatura

77

Humedad (%)

1001.02

Presión (mb)

4.5

Precipitación (mm)

8 O

Viento (Km/h)

DATOS DIARIOS

Temperatura últimas 24 horas (ºC)

Humedad últimas 24 horas (%)

Presión atmosférica últimas 24 horas (mb)

Precipitaciones últimas 23 horas (mm)

Viento últimas 24 horas (Km/h)

Hora Temperatura (°C) ºC Precipitación (mm) mm Presión (mb) mb Humedad (%) % Viento (Km/h) km/h
25 - 00:00 24.1 0 1005 64 6.2 S
25 - 01:00 24.4 0 1004 64 4.7 W
25 - 02:00 24.3 0 1004 64 3.5 SO
25 - 03:00 24 0 1003 65 3.1 SW
25 - 04:00 23.6 0.2 1003 67 4.4 O
25 - 05:00 22.9 0.2 1002 73 4.6 NW
25 - 06:00 22.6 0.3 1002 74 6.1 O
25 - 07:00 22.4 0.4 1003 74 6.9 NO
25 - 08:00 22.2 0.7 1003 74 5 O
25 - 09:00 21.4 1.2 1004 78 4.9 SO
25 - 10:00 22.1 1.6 1004 79 4.1 O
25 - 11:00 22.5 1.9 1004 80 7.5 W
25 - 12:00 22.6 2.2 1004 81 10.7 W
25 - 13:00 23 2.3 1004 79 3.5 W
25 - 14:00 22.7 2.7 1003 82 5.1 NW
25 - 15:00 23.2 3.1 1003 81 9.9 NW
25 - 16:00 22.8 3.6 1002 83 7.3 NW
25 - 17:00 23.3 3.8 1002 82 3.9 O
25 - 18:00 22.6 4.1 1002 82 4.2 W
25 - 19:00 22.5 4.2 1002 83 6.6 W
25 - 20:00 22.4 4.4 1002 84 7.4 W
25 - 21:00 22.7 4.5 1002 84 2.9 SW
25 - 22:00 22.8 4.5 1002 84 4.3 O
25 - 23:00 23.2 4.5 1001 77 8 O
26 - 00:00
Apalmet utiliza cookies propias y de terceros para mejorar la usabilidad y la experiencia web. Política de cookies.